Main page
METAR-TAF:

METAR-TAF

Airports :

Málaga Airport

Málaga, Spain

latitude: 36-40N, longitude: 004-29W, elevation: 16 m

Current weather observation

The report was made 27 minutes ago, at 21:30 UTC
Calm wind
Temperature 14°C
Humidity 88%
Pressure 1016 hPa
Visibility 10 km or more
Few clouds at a height of 6000 ft

METAR: LEMG 212130Z 00000KT 9999 FEW060 14/12 Q1016 NOSIG

Time: 23:57 (21:57 UTC)

Forecast

The report was made 4 hours and 57 minutes ago, at 17:00 UTC
Forecast valid from 21 at 18 UTC to 22 at 18 UTC
Wind 8 kt from the Southeast
Visibility 10 km or more
Few clouds at a height of 5000 ft
Becoming
from 21 at 19 UTC to 21 at 21 UTC
Wind 6 kt from the West/Northwest

TAF: LEMG 211700Z 2118/2218 13008KT 9999 FEW050 TX22/2213Z TN12/2206Z BECMG 2119/2121 29006KT

Weather observations and forecasts of more than 4000 airports (METAR and TAF reports).

The available stations are represented by yellow and red dots on the map.

Hover mouse over dot to see the name of the station.

Then click to see weather observations and forecasts.

To change the map : click on the green buttons with a black cross to zoom in, on the green button with a dash to zoom out, or on the green arrows for adjacent maps.


METAR-TAF: